Time;durP1;ratioP1;P1;durP2;ratioP2;P2;SDS_P1;SDS_P2;PMS_P1;PMS_P2;Temp;Humidity;BMP_temperature;BMP_pressure;BME280_temperature;BME280_humidity;BME280_pressure;Samples;Min_cycle;Max_cycle;Signal;HPM_P1;HPM_P2
2023/10/29 00:00:47;;;;;;;1.30;0.57;;;;;;;;;;4918462;29;20067;-85
2023/10/29 00:03:12;;;;;;;2.80;0.77;;;;;;;;;;4910395;29;20036;-83
2023/10/29 00:05:38;;;;;;;1.77;0.90;;;;;;;;;;4899290;29;20035;-83
2023/10/29 00:08:03;;;;;;;2.30;1.00;;;;;;;;;;4919803;29;20055;-84
2023/10/29 00:10:29;;;;;;;2.45;0.80;;;;;;;;;;4919857;29;20032;-84
2023/10/29 00:12:55;;;;;;;1.80;0.88;;;;;;;;;;4919091;29;20137;-83
2023/10/29 00:15:20;;;;;;;1.50;0.80;;;;;;;;;;4931481;29;20032;-83
2023/10/29 00:17:46;;;;;;;2.13;0.77;;;;;;;;;;4913264;29;20402;-83
2023/10/29 00:20:11;;;;;;;1.65;0.90;;;;;;;;;;4919627;29;20092;-83
2023/10/29 00:22:37;;;;;;;1.25;0.80;;;;;;;;;;4920231;29;20036;-84
2023/10/29 00:25:02;;;;;;;2.78;0.90;;;;;;;;;;4918842;29;20024;-83
2023/10/29 00:27:28;;;;;;;2.38;0.85;;;;;;;;;;4932817;29;20032;-82
2023/10/29 00:29:53;;;;;;;1.35;0.77;;;;;;;;;;4919120;29;20039;-83
2023/10/29 00:32:19;;;;;;;1.88;0.88;;;;;;;;;;4902918;29;20457;-83
2023/10/29 00:34:48;;;;;;;1.30;0.68;;;;;;;;;;4918379;29;20111;-82
2023/10/29 00:37:17;;;;;;;2.25;0.70;;;;;;;;;;4896770;29;20446;-82
2023/10/29 00:39:43;;;;;;;1.90;0.88;;;;;;;;;;5015434;23;20042;-83
2023/10/29 00:42:12;;;;;;;0.85;0.70;;;;;;;;;;4994953;28;20073;-84
2023/10/29 00:44:37;;;;;;;0.93;0.60;;;;;;;;;;5004869;28;20492;-83
2023/10/29 00:47:06;;;;;;;2.17;0.98;;;;;;;;;;5004411;28;20053;-84
2023/10/29 00:49:33;;;;;;;1.50;0.80;;;;;;;;;;4979266;28;20030;-83
2023/10/29 00:51:59;;;;;;;1.77;0.85;;;;;;;;;;4990665;28;20030;-84
2023/10/29 00:54:25;;;;;;;6.45;0.80;;;;;;;;;;4973537;28;20584;-84
2023/10/29 00:56:53;;;;;;;2.35;0.75;;;;;;;;;;4973586;28;20537;-85
2023/10/29 00:59:20;;;;;;;2.63;0.95;;;;;;;;;;4967014;28;20041;-85
2023/10/29 01:01:47;;;;;;;2.33;0.93;;;;;;;;;;4970931;28;20054;-85
2023/10/29 01:04:12;;;;;;;1.38;0.80;;;;;;;;;;4993743;28;20113;-84
2023/10/29 01:06:39;;;;;;;3.08;0.68;;;;;;;;;;4991181;28;20120;-85
2023/10/29 01:09:07;;;;;;;1.80;0.90;;;;;;;;;;4970391;28;20085;-83
2023/10/29 01:11:33;;;;;;;2.28;0.75;;;;;;;;;;4976349;28;20033;-85
2023/10/29 01:14:00;;;;;;;1.98;0.80;;;;;;;;;;4973626;28;20038;-85
2023/10/29 01:16:28;;;;;;;3.25;0.90;;;;;;;;;;4964111;28;20377;-82
2023/10/29 01:18:55;;;;;;;1.52;0.88;;;;;;;;;;4970607;28;20531;-85
2023/10/29 01:21:21;;;;;;;0.90;0.70;;;;;;;;;;4985138;28;20458;-84
2023/10/29 01:23:47;;;;;;;1.67;0.90;;;;;;;;;;4994865;28;20575;-84
2023/10/29 01:26:12;;;;;;;1.83;1.00;;;;;;;;;;4975256;28;20026;-83
2023/10/29 01:28:39;;;;;;;2.33;1.02;;;;;;;;;;5000209;28;20077;-82
2023/10/29 01:31:06;;;;;;;2.47;0.80;;;;;;;;;;4991059;28;20018;-84
2023/10/29 01:33:31;;;;;;;2.08;1.20;;;;;;;;;;4991192;28;20043;-82
2023/10/29 01:35:57;;;;;;;0.70;0.70;;;;;;;;;;4991291;28;20540;-83
2023/10/29 01:38:22;;;;;;;1.20;1.00;;;;;;;;;;4994614;28;20035;-84
2023/10/29 01:40:48;;;;;;;1.30;0.80;;;;;;;;;;4994539;28;20070;-85
2023/10/29 01:43:14;;;;;;;1.35;1.00;;;;;;;;;;4977153;28;20030;-86
2023/10/29 01:45:40;;;;;;;1.23;0.80;;;;;;;;;;4991767;28;20034;-83
2023/10/29 01:48:05;;;;;;;1.02;0.70;;;;;;;;;;4983141;28;20057;-83
2023/10/29 01:50:31;;;;;;;3.30;0.80;;;;;;;;;;4991094;28;20038;-84
2023/10/29 01:52:57;;;;;;;1.33;0.77;;;;;;;;;;4990656;28;20037;-84
2023/10/29 01:55:22;;;;;;;4.30;0.90;;;;;;;;;;4991460;28;20415;-83
2023/10/29 01:57:48;;;;;;;1.80;0.80;;;;;;;;;;4963622;28;20030;-82
2023/10/29 02:00:14;;;;;;;2.42;0.90;;;;;;;;;;4970103;28;20045;-84
2023/10/29 02:02:40;;;;;;;1.15;0.80;;;;;;;;;;4982531;28;20037;-84
2023/10/29 02:05:06;;;;;;;1.73;0.95;;;;;;;;;;4984960;28;20014;-82
2023/10/29 02:07:32;;;;;;;2.03;0.90;;;;;;;;;;4950459;28;20034;-84
2023/10/29 02:09:58;;;;;;;2.30;1.02;;;;;;;;;;4961819;28;20031;-85
2023/10/29 02:12:23;;;;;;;2.65;0.90;;;;;;;;;;4968425;28;20185;-84
2023/10/29 02:14:52;;;;;;;1.58;0.70;;;;;;;;;;4971068;28;20165;-84
2023/10/29 02:17:18;;;;;;;0.85;0.80;;;;;;;;;;4968123;28;20125;-84
2023/10/29 02:19:43;;;;;;;1.02;0.80;;;;;;;;;;4970309;28;20038;-84
2023/10/29 02:22:09;;;;;;;2.45;0.93;;;;;;;;;;4987971;28;20045;-84
2023/10/29 02:24:34;;;;;;;1.60;0.90;;;;;;;;;;4957754;28;20105;-83
2023/10/29 02:27:00;;;;;;;1.33;0.80;;;;;;;;;;4970767;28;20043;-82
2023/10/29 02:29:25;;;;;;;1.58;0.85;;;;;;;;;;4970470;28;20034;-83
2023/10/29 02:31:50;;;;;;;1.02;0.80;;;;;;;;;;4966030;28;20027;-83
2023/10/29 02:34:16;;;;;;;1.35;0.80;;;;;;;;;;4989323;28;20042;-84
2023/10/29 02:36:41;;;;;;;1.35;0.80;;;;;;;;;;4965849;28;20030;-85
2023/10/29 02:39:07;;;;;;;1.42;0.70;;;;;;;;;;4963919;28;20463;-82
2023/10/29 02:41:33;;;;;;;0.77;0.70;;;;;;;;;;4989502;28;20034;-82
2023/10/29 02:43:58;;;;;;;1.23;0.88;;;;;;;;;;4979817;28;20507;-83
2023/10/29 02:46:24;;;;;;;2.70;0.80;;;;;;;;;;4976125;28;20026;-82
2023/10/29 02:48:50;;;;;;;0.95;0.80;;;;;;;;;;4963169;28;20081;-83
2023/10/29 02:51:15;;;;;;;1.65;0.80;;;;;;;;;;4959921;28;20039;-85
2023/10/29 02:53:41;;;;;;;1.60;0.70;;;;;;;;;;4984015;28;20038;-81
2023/10/29 02:56:07;;;;;;;1.75;0.90;;;;;;;;;;4989340;28;20399;-81
2023/10/29 02:58:33;;;;;;;1.20;0.80;;;;;;;;;;4986349;28;20057;-84
2023/10/29 03:01:07;;;;;;;1.50;0.90;;;;;;;;;;4966309;28;20088;-84
2023/10/29 03:03:34;;;;;;;2.58;0.90;;;;;;;;;;4978538;28;20040;-83
2023/10/29 03:06:05;;;;;;;1.65;0.70;;;;;;;;;;4969391;28;20400;-82
2023/10/29 03:08:30;;;;;;;1.55;0.80;;;;;;;;;;4984784;28;20038;-84
2023/10/29 03:10:56;;;;;;;2.88;0.90;;;;;;;;;;4967495;28;20385;-82
2023/10/29 03:13:21;;;;;;;0.80;0.70;;;;;;;;;;4965452;28;20038;-84
2023/10/29 03:15:47;;;;;;;3.10;0.77;;;;;;;;;;4984440;28;20034;-83
2023/10/29 03:18:13;;;;;;;0.80;0.60;;;;;;;;;;4968300;28;20077;-83
2023/10/29 03:20:39;;;;;;;1.27;0.90;;;;;;;;;;4986335;28;20037;-83
2023/10/29 03:23:05;;;;;;;0.88;0.73;;;;;;;;;;4986286;28;20026;-82
2023/10/29 03:25:30;;;;;;;1.60;0.77;;;;;;;;;;4971938;28;20029;-81
2023/10/29 03:27:56;;;;;;;2.03;0.93;;;;;;;;;;4954744;28;20042;-84
2023/10/29 03:30:22;;;;;;;1.20;0.90;;;;;;;;;;4969897;28;20035;-83
2023/10/29 03:32:47;;;;;;;3.95;1.38;;;;;;;;;;4960747;28;20062;-81
2023/10/29 03:35:13;;;;;;;3.00;0.77;;;;;;;;;;4962427;28;20034;-84
2023/10/29 03:37:39;;;;;;;1.42;0.90;;;;;;;;;;4952924;28;20037;-83
2023/10/29 03:40:06;;;;;;;1.90;0.80;;;;;;;;;;4982441;28;20026;-83
2023/10/29 03:42:33;;;;;;;1.30;0.90;;;;;;;;;;4964719;28;20428;-82
2023/10/29 03:44:59;;;;;;;1.38;0.90;;;;;;;;;;4986171;28;20109;-82
2023/10/29 03:47:24;;;;;;;1.30;0.90;;;;;;;;;;4986599;28;20038;-82
2023/10/29 03:49:50;;;;;;;2.28;0.90;;;;;;;;;;4984643;28;20067;-82
2023/10/29 03:52:15;;;;;;;1.35;0.80;;;;;;;;;;4975804;28;20031;-84
2023/10/29 03:54:41;;;;;;;0.80;0.70;;;;;;;;;;4965783;28;20035;-83
2023/10/29 03:57:07;;;;;;;1.40;0.82;;;;;;;;;;4982408;28;20096;-84
2023/10/29 03:59:34;;;;;;;1.70;0.90;;;;;;;;;;5000423;28;20041;-83
2023/10/29 04:01:59;;;;;;;0.98;0.88;;;;;;;;;;4986685;28;20091;-82
2023/10/29 04:04:25;;;;;;;2.65;1.13;;;;;;;;;;4982068;28;20026;-83
2023/10/29 04:06:51;;;;;;;2.22;0.90;;;;;;;;;;4986240;28;20045;-83
2023/10/29 04:09:16;;;;;;;1.90;0.90;;;;;;;;;;4987374;28;20034;-82
2023/10/29 04:11:43;;;;;;;1.63;0.90;;;;;;;;;;4984542;28;20559;-83
2023/10/29 04:14:09;;;;;;;1.63;0.88;;;;;;;;;;4982638;28;20031;-81
2023/10/29 04:16:34;;;;;;;1.38;0.80;;;;;;;;;;4969813;28;20464;-82
2023/10/29 04:19:00;;;;;;;1.13;0.80;;;;;;;;;;4986781;28;20043;-83
2023/10/29 04:21:26;;;;;;;1.77;0.80;;;;;;;;;;4970958;28;20058;-82
2023/10/29 04:23:52;;;;;;;2.22;1.00;;;;;;;;;;4967168;28;20038;-84
2023/10/29 04:26:18;;;;;;;2.22;0.90;;;;;;;;;;4993395;28;20037;-84
2023/10/29 04:28:43;;;;;;;0.90;0.70;;;;;;;;;;4988948;28;20041;-85
2023/10/29 04:31:09;;;;;;;1.80;1.10;;;;;;;;;;4998219;28;20099;-84
2023/10/29 04:33:34;;;;;;;1.95;1.30;;;;;;;;;;4977453;28;20112;-83
2023/10/29 04:36:00;;;;;;;2.78;1.50;;;;;;;;;;4974159;28;20035;-85
2023/10/29 04:38:25;;;;;;;6.82;1.30;;;;;;;;;;4994687;28;20461;-85
2023/10/29 04:40:52;;;;;;;1.98;1.20;;;;;;;;;;4960148;28;20045;-86
2023/10/29 04:43:17;;;;;;;2.47;1.00;;;;;;;;;;4991522;28;20114;-86
2023/10/29 04:45:43;;;;;;;1.75;1.00;;;;;;;;;;4994543;28;20112;-85
2023/10/29 04:48:08;;;;;;;1.50;0.90;;;;;;;;;;4995301;28;20034;-84
2023/10/29 04:50:34;;;;;;;1.27;0.80;;;;;;;;;;4977504;28;20033;-84
2023/10/29 04:53:02;;;;;;;1.20;0.90;;;;;;;;;;4970968;28;20038;-85
2023/10/29 04:55:28;;;;;;;1.17;0.80;;;;;;;;;;4989942;28;20086;-85
2023/10/29 04:57:53;;;;;;;2.03;0.88;;;;;;;;;;4990335;28;20031;-86
2023/10/29 05:00:19;;;;;;;1.52;0.85;;;;;;;;;;4977234;28;20061;-84
2023/10/29 05:02:44;;;;;;;2.08;0.70;;;;;;;;;;4979350;28;20034;-86
2023/10/29 05:05:11;;;;;;;1.13;0.90;;;;;;;;;;4989561;28;20109;-86
2023/10/29 05:07:36;;;;;;;1.42;0.85;;;;;;;;;;4988945;28;20050;-84
2023/10/29 05:10:04;;;;;;;1.63;0.90;;;;;;;;;;4984039;28;20038;-83
2023/10/29 05:12:29;;;;;;;3.35;1.00;;;;;;;;;;4970240;28;20027;-84
2023/10/29 05:14:55;;;;;;;1.05;0.80;;;;;;;;;;4996445;28;20054;-85
2023/10/29 05:17:20;;;;;;;1.65;0.80;;;;;;;;;;4990860;28;20035;-83
2023/10/29 05:19:45;;;;;;;1.25;0.90;;;;;;;;;;4993850;28;20026;-84
2023/10/29 05:22:11;;;;;;;0.90;0.80;;;;;;;;;;4992881;28;20030;-84
2023/10/29 05:24:36;;;;;;;1.63;1.00;;;;;;;;;;4996748;28;20019;-83
2023/10/29 05:27:03;;;;;;;1.55;0.80;;;;;;;;;;4993045;28;20098;-82
2023/10/29 05:29:29;;;;;;;2.70;1.48;;;;;;;;;;4998317;28;20558;-83
2023/10/29 05:31:54;;;;;;;1.55;0.80;;;;;;;;;;4977285;28;20138;-82
2023/10/29 05:34:20;;;;;;;2.92;0.90;;;;;;;;;;4977776;28;20469;-85
2023/10/29 05:36:45;;;;;;;3.35;0.70;;;;;;;;;;4990523;28;20549;-85
2023/10/29 05:39:11;;;;;;;2.28;0.80;;;;;;;;;;4991275;28;20031;-83
2023/10/29 05:41:36;;;;;;;3.08;0.82;;;;;;;;;;4964184;28;20042;-85
2023/10/29 05:44:02;;;;;;;1.25;0.82;;;;;;;;;;5000836;28;20062;-84
2023/10/29 05:46:27;;;;;;;1.70;0.90;;;;;;;;;;4975081;28;20034;-85
2023/10/29 05:48:53;;;;;;;3.15;0.95;;;;;;;;;;4974987;28;20033;-84
2023/10/29 05:51:19;;;;;;;1.52;0.90;;;;;;;;;;4996568;28;20073;-83
2023/10/29 05:53:46;;;;;;;2.88;0.85;;;;;;;;;;4993247;28;20061;-83
2023/10/29 05:56:12;;;;;;;1.58;1.05;;;;;;;;;;4971031;28;20034;-83
2023/10/29 05:58:38;;;;;;;2.85;0.90;;;;;;;;;;4991405;28;20022;-86
2023/10/29 06:01:04;;;;;;;3.75;1.00;;;;;;;;;;4993485;28;20058;-84
2023/10/29 06:03:30;;;;;;;0.80;0.80;;;;;;;;;;4996737;28;20038;-84
2023/10/29 06:05:55;;;;;;;1.77;1.30;;;;;;;;;;4995417;28;20137;-82
2023/10/29 06:08:21;;;;;;;1.92;1.00;;;;;;;;;;4967148;28;20039;-84
2023/10/29 06:10:48;;;;;;;1.73;1.05;;;;;;;;;;4972801;28;20038;-83
2023/10/29 06:13:13;;;;;;;1.10;1.00;;;;;;;;;;4992206;28;20030;-82
2023/10/29 06:15:39;;;;;;;2.63;1.33;;;;;;;;;;4962923;28;20339;-82
2023/10/29 06:18:06;;;;;;;1.85;1.00;;;;;;;;;;4952393;28;20030;-83
2023/10/29 06:20:32;;;;;;;1.55;0.80;;;;;;;;;;4984756;28;20038;-84
2023/10/29 06:22:58;;;;;;;2.67;0.93;;;;;;;;;;4987332;28;20080;-84
2023/10/29 06:25:24;;;;;;;3.28;0.90;;;;;;;;;;4986534;28;20036;-83
2023/10/29 06:27:49;;;;;;;1.10;0.85;;;;;;;;;;4961490;28;20014;-84
2023/10/29 06:30:16;;;;;;;3.28;0.95;;;;;;;;;;4975017;28;20035;-85
2023/10/29 06:32:42;;;;;;;1.95;0.80;;;;;;;;;;4988761;28;20029;-84
2023/10/29 06:35:08;;;;;;;2.35;0.90;;;;;;;;;;4988704;28;20046;-84
2023/10/29 06:37:34;;;;;;;1.83;0.70;;;;;;;;;;4974979;28;20026;-83
2023/10/29 06:40:00;;;;;;;1.08;0.57;;;;;;;;;;4971125;28;20042;-82
2023/10/29 06:42:25;;;;;;;2.13;0.90;;;;;;;;;;4992340;28;20029;-83
2023/10/29 06:44:51;;;;;;;2.08;0.80;;;;;;;;;;4992575;28;20026;-83
2023/10/29 06:47:16;;;;;;;1.92;1.00;;;;;;;;;;4991803;28;20018;-83
2023/10/29 06:49:42;;;;;;;1.55;0.90;;;;;;;;;;4973169;28;20042;-85
2023/10/29 06:52:08;;;;;;;3.00;1.40;;;;;;;;;;4988246;28;20046;-85
2023/10/29 06:54:34;;;;;;;3.20;0.90;;;;;;;;;;4990543;28;20113;-85
2023/10/29 06:57:00;;;;;;;2.30;1.20;;;;;;;;;;4989433;28;20042;-87
2023/10/29 06:59:26;;;;;;;2.22;1.50;;;;;;;;;;4982946;28;20034;-84
2023/10/29 07:01:52;;;;;;;2.13;1.17;;;;;;;;;;4990113;28;20246;-87
2023/10/29 07:04:17;;;;;;;2.03;1.42;;;;;;;;;;4954560;28;20037;-85
2023/10/29 07:06:44;;;;;;;2.58;1.65;;;;;;;;;;4994335;28;20030;-85
2023/10/29 07:09:09;;;;;;;1.40;0.95;;;;;;;;;;4960809;28;20033;-86
2023/10/29 07:11:36;;;;;;;1.23;0.85;;;;;;;;;;4983717;28;20035;-85
2023/10/29 07:14:02;;;;;;;2.40;0.70;;;;;;;;;;4984823;28;20034;-85
2023/10/29 07:16:27;;;;;;;2.72;0.90;;;;;;;;;;4986590;28;20057;-84
2023/10/29 07:18:53;;;;;;;0.85;0.75;;;;;;;;;;4985072;28;20042;-85
2023/10/29 07:21:18;;;;;;;1.20;0.80;;;;;;;;;;4985635;28;20026;-86
2023/10/29 07:23:44;;;;;;;0.95;0.80;;;;;;;;;;4986551;28;20401;-84
2023/10/29 07:26:09;;;;;;;2.28;0.85;;;;;;;;;;4983930;28;20189;-85
2023/10/29 07:28:35;;;;;;;1.52;0.80;;;;;;;;;;4984402;28;20084;-86
2023/10/29 07:31:02;;;;;;;1.00;0.70;;;;;;;;;;4960063;28;20424;-86
2023/10/29 07:33:28;;;;;;;1.50;1.10;;;;;;;;;;4986100;28;20096;-85
2023/10/29 07:35:53;;;;;;;1.40;0.90;;;;;;;;;;4966222;28;20531;-83
2023/10/29 07:38:19;;;;;;;2.65;0.80;;;;;;;;;;4984549;28;20061;-84
2023/10/29 07:40:44;;;;;;;1.02;0.80;;;;;;;;;;4980963;28;20110;-85
2023/10/29 07:43:09;;;;;;;1.48;0.80;;;;;;;;;;4983459;28;20041;-84
2023/10/29 07:45:35;;;;;;;1.95;0.90;;;;;;;;;;4996253;28;20046;-85
2023/10/29 07:48:01;;;;;;;1.13;0.80;;;;;;;;;;4976581;28;20082;-85
2023/10/29 07:50:26;;;;;;;1.42;0.73;;;;;;;;;;4990881;28;20119;-83
2023/10/29 07:52:52;;;;;;;2.38;0.82;;;;;;;;;;4968321;28;20038;-85
2023/10/29 07:55:17;;;;;;;0.85;0.60;;;;;;;;;;4985862;28;20041;-85
2023/10/29 07:57:43;;;;;;;1.40;0.77;;;;;;;;;;4979229;28;20076;-86
2023/10/29 08:00:09;;;;;;;1.83;0.80;;;;;;;;;;4983513;28;20035;-85
2023/10/29 08:02:37;;;;;;;0.88;0.70;;;;;;;;;;4981363;28;20042;-82
2023/10/29 08:05:03;;;;;;;0.95;0.70;;;;;;;;;;4988101;28;20026;-87
2023/10/29 08:07:29;;;;;;;0.90;0.77;;;;;;;;;;4973406;28;20497;-85
2023/10/29 08:09:56;;;;;;;1.85;0.70;;;;;;;;;;4988705;28;20034;-84
2023/10/29 08:12:22;;;;;;;0.80;0.60;;;;;;;;;;4981756;28;20038;-85
2023/10/29 08:14:48;;;;;;;1.05;0.80;;;;;;;;;;4966196;28;20038;-85
2023/10/29 08:17:17;;;;;;;1.05;0.80;;;;;;;;;;4964447;28;20026;-85
2023/10/29 08:19:43;;;;;;;2.25;0.80;;;;;;;;;;4971305;28;20716;-85
2023/10/29 08:22:09;;;;;;;2.03;0.77;;;;;;;;;;4983924;28;20030;-85
2023/10/29 08:24:35;;;;;;;1.38;0.70;;;;;;;;;;4986217;28;20037;-86
2023/10/29 08:27:00;;;;;;;1.15;0.60;;;;;;;;;;4982665;28;20132;-83
2023/10/29 08:29:26;;;;;;;1.45;0.60;;;;;;;;;;4989159;28;20436;-84
2023/10/29 08:31:51;;;;;;;1.83;0.77;;;;;;;;;;4987105;28;20033;-82
2023/10/29 08:34:17;;;;;;;0.80;0.60;;;;;;;;;;4962175;28;20515;-83
2023/10/29 08:36:42;;;;;;;0.63;0.63;;;;;;;;;;4982906;28;20034;-84
2023/10/29 08:39:08;;;;;;;0.93;0.60;;;;;;;;;;4989702;28;20038;-83
2023/10/29 08:41:34;;;;;;;1.10;0.70;;;;;;;;;;4992594;28;20042;-83
2023/10/29 08:44:00;;;;;;;0.60;0.57;;;;;;;;;;4984997;28;20166;-84
2023/10/29 08:46:26;;;;;;;1.88;0.63;;;;;;;;;;4988428;28;20026;-83
2023/10/29 08:48:51;;;;;;;0.98;0.68;;;;;;;;;;4986976;28;20357;-84
2023/10/29 08:51:17;;;;;;;0.63;0.60;;;;;;;;;;4955239;28;20039;-83
2023/10/29 08:53:42;;;;;;;2.65;0.70;;;;;;;;;;4984332;28;20524;-82
2023/10/29 08:56:08;;;;;;;1.75;1.10;;;;;;;;;;4986220;28;20039;-84
2023/10/29 08:58:34;;;;;;;1.48;0.90;;;;;;;;;;4981917;28;20053;-83
2023/10/29 09:00:59;;;;;;;1.27;0.80;;;;;;;;;;4968746;28;20408;-84
2023/10/29 09:03:26;;;;;;;1.05;0.70;;;;;;;;;;4976237;28;20042;-84
2023/10/29 09:05:51;;;;;;;1.67;0.70;;;;;;;;;;4993888;28;20032;-84
2023/10/29 09:08:17;;;;;;;1.50;0.68;;;;;;;;;;4996004;28;20038;-83
2023/10/29 09:10:43;;;;;;;1.48;0.70;;;;;;;;;;4996411;28;20041;-84
2023/10/29 09:13:09;;;;;;;1.02;0.80;;;;;;;;;;4994278;28;20069;-83
2023/10/29 09:15:35;;;;;;;3.67;0.80;;;;;;;;;;4988697;28;20031;-84
2023/10/29 09:18:00;;;;;;;0.82;0.80;;;;;;;;;;4971878;28;20045;-85
2023/10/29 09:20:26;;;;;;;0.98;0.70;;;;;;;;;;4988244;28;20062;-84
2023/10/29 09:22:51;;;;;;;2.78;0.88;;;;;;;;;;4996515;28;20033;-85
2023/10/29 09:25:17;;;;;;;1.52;0.80;;;;;;;;;;4971440;28;20030;-84
2023/10/29 09:27:42;;;;;;;1.73;0.82;;;;;;;;;;4991092;28;20041;-83
2023/10/29 09:30:08;;;;;;;1.98;0.70;;;;;;;;;;4990907;28;20061;-84
2023/10/29 09:32:35;;;;;;;0.73;0.45;;;;;;;;;;4973559;28;20034;-83
2023/10/29 09:35:04;;;;;;;3.00;0.60;;;;;;;;;;4992915;28;20034;-82
2023/10/29 09:37:32;;;;;;;1.70;0.70;;;;;;;;;;4992494;28;20119;-83
2023/10/29 09:39:58;;;;;;;0.70;0.60;;;;;;;;;;4987242;28;20047;-82
2023/10/29 09:42:28;;;;;;;1.83;0.77;;;;;;;;;;4995828;28;20034;-83
2023/10/29 09:44:58;;;;;;;1.80;0.63;;;;;;;;;;4989148;28;20113;-83
2023/10/29 09:47:26;;;;;;;1.05;0.80;;;;;;;;;;4967847;28;20038;-83
2023/10/29 09:49:54;;;;;;;1.63;0.57;;;;;;;;;;4988818;28;20061;-82
2023/10/29 09:52:23;;;;;;;2.05;0.80;;;;;;;;;;4990418;28;20026;-82
2023/10/29 09:54:51;;;;;;;2.33;0.60;;;;;;;;;;4989904;28;20481;-86
2023/10/29 09:57:17;;;;;;;2.55;0.80;;;;;;;;;;4984814;28;20035;-83
2023/10/29 09:59:43;;;;;;;2.38;0.90;;;;;;;;;;4986895;28;20030;-82
2023/10/29 10:02:08;;;;;;;1.80;1.20;;;;;;;;;;4990124;28;20058;-83
2023/10/29 10:04:36;;;;;;;1.50;0.80;;;;;;;;;;4973381;28;20026;-84
2023/10/29 10:07:04;;;;;;;1.80;1.13;;;;;;;;;;4984483;28;20046;-83
2023/10/29 10:09:50;;;;;;;2.80;0.65;;;;;;;;;;4987141;28;20034;-83
2023/10/29 10:12:15;;;;;;;3.30;1.00;;;;;;;;;;4987716;28;20042;-83
2023/10/29 10:14:41;;;;;;;1.70;0.90;;;;;;;;;;4987352;28;20018;-84
2023/10/29 10:17:08;;;;;;;5.03;0.80;;;;;;;;;;4979907;28;20038;-84
2023/10/29 10:19:34;;;;;;;2.58;0.88;;;;;;;;;;4994421;28;20070;-85
2023/10/29 10:22:00;;;;;;;3.03;1.65;;;;;;;;;;4988103;28;20101;-85
2023/10/29 10:24:39;;;;;;;1.42;0.82;;;;;;;;;;4977333;28;20061;-85
2023/10/29 10:27:06;;;;;;;2.17;1.40;;;;;;;;;;4988929;28;20034;-84
2023/10/29 10:29:31;;;;;;;1.83;0.93;;;;;;;;;;4988610;28;20038;-85
2023/10/29 10:32:02;;;;;;;1.20;1.00;;;;;;;;;;4954858;28;20039;-83
2023/10/29 10:34:30;;;;;;;1.42;0.85;;;;;;;;;;4989032;28;20101;-85
2023/10/29 10:37:02;;;;;;;2.53;0.85;;;;;;;;;;4986132;28;20038;-85
2023/10/29 10:39:31;;;;;;;1.30;1.07;;;;;;;;;;4978744;28;20500;-85
2023/10/29 10:41:58;;;;;;;4.82;1.02;;;;;;;;;;4990275;28;20356;-87
2023/10/29 10:44:32;;;;;;;3.05;1.00;;;;;;;;;;4973262;28;20061;-86
2023/10/29 10:47:02;;;;;;;1.20;0.90;;;;;;;;;;4987506;28;20031;-83
2023/10/29 10:49:31;;;;;;;1.20;0.82;;;;;;;;;;4963443;28;20484;-83
2023/10/29 10:51:59;;;;;;;3.55;1.00;;;;;;;;;;4973858;28;20484;-83
2023/10/29 10:54:26;;;;;;;1.88;0.90;;;;;;;;;;4986488;28;20853;-84
2023/10/29 10:56:53;;;;;;;5.07;1.23;;;;;;;;;;4988669;28;20031;-84
2023/10/29 10:59:20;;;;;;;3.92;1.30;;;;;;;;;;4960138;28;20035;-83
2023/10/29 11:01:46;;;;;;;1.50;0.90;;;;;;;;;;4985980;28;20038;-84
2023/10/29 11:04:12;;;;;;;0.90;0.80;;;;;;;;;;4985863;28;20030;-84
2023/10/29 11:06:39;;;;;;;3.10;1.15;;;;;;;;;;4990732;28;20042;-85
2023/10/29 11:09:13;;;;;;;2.13;1.15;;;;;;;;;;4965235;28;20666;-82
2023/10/29 11:11:46;;;;;;;2.15;1.38;;;;;;;;;;4977709;28;20057;-85
2023/10/29 11:14:13;;;;;;;2.03;1.43;;;;;;;;;;4967252;28;20046;-85
2023/10/29 11:17:05;;;;;;;3.35;1.15;;;;;;;;;;4986649;28;20547;-85
2023/10/29 11:19:39;;;;;;;1.92;1.23;;;;;;;;;;4975406;28;20136;-82
2023/10/29 11:22:17;;;;;;;1.25;0.90;;;;;;;;;;4974280;28;20039;-85
2023/10/29 11:24:44;;;;;;;1.15;0.70;;;;;;;;;;4972363;28;20492;-84
2023/10/29 11:27:44;;;;;;;1.85;0.90;;;;;;;;;;4973746;28;20026;-85
2023/10/29 11:30:10;;;;;;;2.08;0.80;;;;;;;;;;4968595;28;20228;-83
2023/10/29 11:32:36;;;;;;;1.75;0.73;;;;;;;;;;4964948;28;20023;-84
2023/10/29 11:35:19;;;;;;;1.98;0.70;;;;;;;;;;4991229;28;20042;-84
2023/10/29 11:37:45;;;;;;;1.88;0.80;;;;;;;;;;4971744;28;20034;-85
2023/10/29 11:40:22;;;;;;;1.83;1.00;;;;;;;;;;4988500;28;20027;-86
2023/10/29 11:42:48;;;;;;;1.63;0.82;;;;;;;;;;4987030;28;20117;-85
2023/10/29 11:45:31;;;;;;;1.25;0.90;;;;;;;;;;4985097;28;20022;-84
2023/10/29 11:48:05;;;;;;;0.90;0.82;;;;;;;;;;4990873;28;20073;-85
2023/10/29 11:50:31;;;;;;;1.00;0.90;;;;;;;;;;4966550;28;20042;-85
2023/10/29 11:52:57;;;;;;;2.40;0.98;;;;;;;;;;4986016;28;20064;-83
2023/10/29 11:55:26;;;;;;;2.75;1.20;;;;;;;;;;4990262;28;20038;-85
2023/10/29 11:57:53;;;;;;;1.65;0.90;;;;;;;;;;4968480;28;20392;-85
2023/10/29 12:00:21;;;;;;;1.27;0.80;;;;;;;;;;4975547;28;20153;-84
2023/10/29 12:02:47;;;;;;;2.10;1.00;;;;;;;;;;4981941;28;20029;-85
2023/10/29 12:05:15;;;;;;;2.78;1.20;;;;;;;;;;4983708;28;20516;-85
2023/10/29 12:07:41;;;;;;;1.70;0.82;;;;;;;;;;4990635;28;20038;-85
2023/10/29 12:10:07;;;;;;;1.67;0.73;;;;;;;;;;4988470;28;20018;-83
2023/10/29 12:12:33;;;;;;;2.90;0.82;;;;;;;;;;4980594;28;20564;-84
2023/10/29 12:14:59;;;;;;;2.05;0.80;;;;;;;;;;4982177;28;20038;-86
2023/10/29 12:17:25;;;;;;;1.85;0.90;;;;;;;;;;4987019;28;20057;-83
2023/10/29 12:19:50;;;;;;;2.03;0.60;;;;;;;;;;4971241;28;20495;-84
2023/10/29 12:22:21;;;;;;;1.55;0.68;;;;;;;;;;4978398;28;20035;-84
2023/10/29 12:24:48;;;;;;;2.42;0.70;;;;;;;;;;4982569;28;20040;-83
2023/10/29 12:27:14;;;;;;;0.82;0.50;;;;;;;;;;4979607;28;20038;-84
2023/10/29 12:29:40;;;;;;;0.60;0.50;;;;;;;;;;4987065;28;20034;-83
2023/10/29 12:32:15;;;;;;;1.95;0.70;;;;;;;;;;4965609;28;20035;-84
2023/10/29 12:34:56;;;;;;;2.70;0.90;;;;;;;;;;4961206;28;20042;-85
2023/10/29 12:37:30;;;;;;;2.83;0.70;;;;;;;;;;4989317;28;20038;-85
2023/10/29 12:39:59;;;;;;;2.33;0.68;;;;;;;;;;4986065;28;20451;-86
2023/10/29 12:42:53;;;;;;;2.70;0.77;;;;;;;;;;4974077;28;20382;-85
2023/10/29 12:45:26;;;;;;;1.23;0.70;;;;;;;;;;4975538;28;20118;-84
2023/10/29 12:48:17;;;;;;;1.13;0.60;;;;;;;;;;4978310;28;20480;-85
2023/10/29 12:50:52;;;;;;;0.75;0.50;;;;;;;;;;4993167;28;20053;-84
2023/10/29 12:53:25;;;;;;;2.60;0.73;;;;;;;;;;4977106;28;20031;-82
2023/10/29 12:55:52;;;;;;;0.95;0.65;;;;;;;;;;4978494;28;20049;-83
2023/10/29 12:58:18;;;;;;;1.33;0.52;;;;;;;;;;4983207;28;20057;-81
2023/10/29 13:00:44;;;;;;;2.03;0.70;;;;;;;;;;4989741;28;20495;-81
2023/10/29 13:03:09;;;;;;;1.38;0.70;;;;;;;;;;4980957;28;20086;-81
2023/10/29 13:05:35;;;;;;;1.05;0.68;;;;;;;;;;4976114;28;20506;-82
2023/10/29 13:08:03;;;;;;;0.63;0.50;;;;;;;;;;4969280;28;20412;-82
2023/10/29 13:10:29;;;;;;;1.63;0.50;;;;;;;;;;4989900;28;20098;-79
2023/10/29 13:12:54;;;;;;;1.40;0.70;;;;;;;;;;4987595;28;20496;-81
2023/10/29 13:15:20;;;;;;;2.30;0.70;;;;;;;;;;4980206;28;20038;-81
2023/10/29 13:17:46;;;;;;;2.80;0.50;;;;;;;;;;4961459;28;20121;-81
2023/10/29 13:20:14;;;;;;;1.52;0.70;;;;;;;;;;4978784;28;20038;-81
2023/10/29 13:22:42;;;;;;;1.45;0.75;;;;;;;;;;4981595;28;20084;-81
2023/10/29 13:25:09;;;;;;;1.17;0.70;;;;;;;;;;4961912;28;20030;-81
2023/10/29 13:27:34;;;;;;;2.65;1.63;;;;;;;;;;4982368;28;20030;-81
2023/10/29 13:30:00;;;;;;;6.65;4.00;;;;;;;;;;4983810;28;20129;-81
2023/10/29 13:32:26;;;;;;;6.88;3.72;;;;;;;;;;4969303;28;20050;-81
2023/10/29 13:34:53;;;;;;;4.88;2.58;;;;;;;;;;4978735;28;20397;-81
2023/10/29 13:37:19;;;;;;;2.80;2.00;;;;;;;;;;4985437;28;20023;-80
2023/10/29 13:39:44;;;;;;;2.55;1.70;;;;;;;;;;4983714;28;20457;-81
2023/10/29 13:42:10;;;;;;;2.78;1.30;;;;;;;;;;4988499;28;20034;-81
2023/10/29 13:44:39;;;;;;;1.75;1.00;;;;;;;;;;4987079;28;20065;-81
2023/10/29 13:47:04;;;;;;;1.80;1.10;;;;;;;;;;4983526;28;20046;-80
2023/10/29 13:49:30;;;;;;;1.65;0.80;;;;;;;;;;4990981;28;20381;-82
2023/10/29 13:51:55;;;;;;;0.88;0.63;;;;;;;;;;4990710;28;20041;-81
2023/10/29 13:54:22;;;;;;;3.35;0.77;;;;;;;;;;4988057;28;20066;-81
2023/10/29 13:56:47;;;;;;;2.28;0.80;;;;;;;;;;4984108;28;20034;-82
2023/10/29 13:59:16;;;;;;;2.75;1.02;;;;;;;;;;4986093;28;20050;-81
2023/10/29 14:01:42;;;;;;;1.85;0.90;;;;;;;;;;4987194;28;20038;-80
2023/10/29 14:04:07;;;;;;;2.28;0.70;;;;;;;;;;4991922;28;20037;-81
2023/10/29 14:06:33;;;;;;;0.80;0.60;;;;;;;;;;4987841;28;20078;-81
2023/10/29 14:08:59;;;;;;;1.35;0.80;;;;;;;;;;4985837;28;20073;-82
2023/10/29 14:11:26;;;;;;;1.30;0.75;;;;;;;;;;4997149;28;20035;-82
2023/10/29 14:13:55;;;;;;;1.42;0.95;;;;;;;;;;4991472;28;20066;-81
2023/10/29 14:16:37;;;;;;;2.22;0.77;;;;;;;;;;4988000;28;20039;-82
2023/10/29 14:19:03;;;;;;;2.58;0.70;;;;;;;;;;4964568;28;20031;-81
2023/10/29 14:21:28;;;;;;;1.60;0.70;;;;;;;;;;4985515;28;20385;-82
2023/10/29 14:23:54;;;;;;;1.55;0.80;;;;;;;;;;4995647;28;20487;-81
2023/10/29 14:26:20;;;;;;;2.17;0.90;;;;;;;;;;4988282;28;20031;-83
2023/10/29 14:28:45;;;;;;;2.97;0.80;;;;;;;;;;4970080;28;20189;-84
2023/10/29 14:31:11;;;;;;;4.70;1.00;;;;;;;;;;4986996;28;20489;-80
2023/10/29 14:33:36;;;;;;;1.98;0.75;;;;;;;;;;4989257;28;20066;-81
2023/10/29 14:36:02;;;;;;;4.93;0.70;;;;;;;;;;4965631;28;20038;-81
2023/10/29 14:38:28;;;;;;;2.28;0.80;;;;;;;;;;4980939;28;20065;-83
2023/10/29 14:40:55;;;;;;;1.33;0.82;;;;;;;;;;4983815;28;20057;-80